This is the latest recevied weather packets stored in our database for station/object ED1ZAI-13. If no packets are shown the sender has not sent any weather packets the latest 10 day(s).
| Time | Temp. | Humidity | Pressure | Rain* | Wind** | Luminosity | Snow |
|---|---|---|---|---|---|---|---|
| 1777731643 | 13.33° C | 81% | 1015.9 hPa | 0.51 mm | - | - | - |
| 1777731045 | 13.33° C | 81% | 1016 hPa | 0.51 mm | - | - | - |
| 1777730445 | 13.33° C | 82% | 1016.2 hPa | 0.51 mm | - | - | - |
| 1777729844 | 12.22° C | 81% | 1016.4 hPa | 0 mm | - | - | - |
| 1777729102 | 14.44° C | 79% | 1016.5 hPa | 1.02 mm | - | - | - |
| 1777728501 | 13.33° C | 79% | 1016.6 hPa | 1.02 mm | - | - | - |
| 1777727901 | 13.33° C | 81% | 1016.8 hPa | 1.02 mm | - | - | - |
| 1777727303 | 13.33° C | 83% | 1016.9 hPa | 1.52 mm | - | - | - |
| 1777726703 | 12.22° C | 83% | 1016.8 hPa | 1.52 mm | - | - | - |
| 1777726102 | 11.11° C | 85% | 1017 hPa | 2.03 mm | - | - | - |
| 1777725502 | 10.56° C | 88% | 1018.1 hPa | 2.03 mm | - | - | - |
| 1777724902 | 11.11° C | 87% | 1018.3 hPa | 2.03 mm | - | - | - |
| 1777724302 | 10.56° C | 84% | 1017.6 hPa | 2.54 mm | - | - | - |
| 1777723701 | 11.11° C | 84% | 1017.4 hPa | 3.05 mm | - | - | - |
| 1777723101 | 11.11° C | 86% | 1018.3 hPa | 3.05 mm | - | - | - |
| 1777722503 | 10.56° C | 87% | 1019.1 hPa | 3.05 mm | - | - | - |
| 1777721902 | 10.56° C | 87% | 1019.5 hPa | 2.54 mm | - | - | - |
| 1777721302 | 10.56° C | 88% | 1019.5 hPa | 2.03 mm | - | - | - |
| 1777720702 | 10.56° C | 88% | 1019.4 hPa | 1.52 mm | - | - | - |
| 1777720102 | 10.56° C | 88% | 1019.5 hPa | 1.52 mm | - | - | - |
| 1777719501 | 10° C | 88% | 1019.9 hPa | 1.52 mm | - | - | - |
| 1777718903 | 11.11° C | 85% | 1019.3 hPa | 2.03 mm | - | - | - |
| 1777718303 | 11.11° C | 84% | 1018.9 hPa | 2.54 mm | - | - | - |
| 1777717702 | 11.67° C | 83% | 1018.6 hPa | 7.11 mm | - | - | - |
| 1777717102 | 12.22° C | 86% | 1018.7 hPa | 7.62 mm | - | - | - |
* Rain latest hour (hover to see other rain measurements)
** Current wind speed in m/s (hover to see current wind gust speed)